createdAt,value
2019-05-20T00:01:51.945Z,10.47
2019-05-20T00:06:55.372Z,10.23
2019-05-20T00:11:58.801Z,10.03
2019-05-20T00:17:02.247Z,9.17
2019-05-20T00:22:05.695Z,11.67
2019-05-20T00:27:09.145Z,14.40
2019-05-20T00:32:12.586Z,10.30
2019-05-20T00:37:16.894Z,12.73
2019-05-20T00:42:20.429Z,10.30
2019-05-20T00:47:23.866Z,10.97
2019-05-20T00:52:27.398Z,12.60
2019-05-20T00:57:30.829Z,12.53
2019-05-20T01:02:34.259Z,11.30
2019-05-20T01:07:37.691Z,10.63
2019-05-20T01:12:41.130Z,11.67
2019-05-20T01:17:44.565Z,11.20
2019-05-20T01:22:48.007Z,12.27
2019-05-20T01:27:51.421Z,12.40
2019-05-20T01:32:54.859Z,11.90
2019-05-20T01:37:58.288Z,10.33
2019-05-20T01:43:01.720Z,12.93
2019-05-20T01:48:05.250Z,11.43
2019-05-20T01:53:08.755Z,18.00
2019-05-20T01:58:12.188Z,13.00
2019-05-20T02:03:30.209Z,11.00
2019-05-20T02:08:20.789Z,16.93
2019-05-20T02:13:25.842Z,12.60
2019-05-20T02:18:29.277Z,14.70
2019-05-20T02:23:32.690Z,18.63
2019-05-20T02:28:36.101Z,15.43
2019-05-20T02:33:51.171Z,15.70
2019-05-20T02:38:44.688Z,15.83
2019-05-20T02:43:48.281Z,13.90
2019-05-20T02:48:51.723Z,17.30
2019-05-20T02:53:55.170Z,15.50
2019-05-20T02:58:58.947Z,13.27
2019-05-20T03:04:11.508Z,15.87
2019-05-20T03:09:11.901Z,14.53
2019-05-20T03:14:13.148Z,17.47
2019-05-20T03:19:16.573Z,14.60
2019-05-20T03:24:20.023Z,17.40
2019-05-20T03:29:23.461Z,16.40
2019-05-20T03:34:45.754Z,16.90
2019-05-20T03:39:32.080Z,17.53
2019-05-20T03:44:35.517Z,20.50
2019-05-20T03:49:38.971Z,15.80
2019-05-20T03:54:42.376Z,19.83
2019-05-20T03:59:45.814Z,20.27
2019-05-20T04:05:01.440Z,17.90
2019-05-20T04:09:54.408Z,21.23
2019-05-20T04:14:57.833Z,16.53
2019-05-20T04:20:01.273Z,23.43
2019-05-20T04:25:06.118Z,18.77
2019-05-20T04:30:09.915Z,19.40
2019-05-20T04:35:22.429Z,23.53
2019-05-20T04:40:18.898Z,19.20
2019-05-20T04:45:22.324Z,20.77
2019-05-20T04:50:25.731Z,23.93
2019-05-20T04:55:29.181Z,24.60
2019-05-20T05:00:50.539Z,24.13
2019-05-20T05:05:54.466Z,28.67
2019-05-20T05:10:57.945Z,25.87
2019-05-20T05:16:01.378Z,30.50
2019-05-20T05:21:04.868Z,27.80
2019-05-20T05:26:08.374Z,23.87
2019-05-20T05:31:11.826Z,26.77
2019-05-20T05:36:15.250Z,27.77
2019-05-20T05:41:18.670Z,31.97
2019-05-20T05:46:22.084Z,43.60
2019-05-20T05:51:37.778Z,39.13
2019-05-20T05:56:41.226Z,41.77
2019-05-20T06:01:44.655Z,38.60
2019-05-20T06:06:48.084Z,42.73
2019-05-20T06:11:51.528Z,38.57
2019-05-20T06:16:54.946Z,42.07
2019-05-20T06:21:58.397Z,43.27
2019-05-20T06:27:01.827Z,38.50
2019-05-20T06:32:05.297Z,38.63
2019-05-20T06:37:19.573Z,40.53
2019-05-20T06:42:23.098Z,39.73
2019-05-20T06:47:26.526Z,41.50
2019-05-20T06:52:35.804Z,42.93
2019-05-20T06:57:35.069Z,38.17
2019-05-20T07:02:38.578Z,42.20
2019-05-20T07:07:42.051Z,35.37
2019-05-20T07:12:45.474Z,37.00
2019-05-20T07:17:48.951Z,34.30
2019-05-20T07:22:55.797Z,42.87
2019-05-20T07:27:57.515Z,42.57
2019-05-20T07:33:00.941Z,39.17
2019-05-20T07:38:04.431Z,34.87
2019-05-20T07:43:07.862Z,38.43
2019-05-20T07:48:11.539Z,38.83
2019-05-20T07:53:15.913Z,44.53
2019-05-20T07:58:22.207Z,41.63
2019-05-20T08:03:25.657Z,46.67
2019-05-20T08:08:29.103Z,42.50
2019-05-20T08:13:32.625Z,42.13
2019-05-20T08:18:36.107Z,53.77
2019-05-20T08:23:40.545Z,42.30
2019-05-20T08:28:44.014Z,41.73
2019-05-20T08:33:47.428Z,52.17
2019-05-20T08:38:50.870Z,52.20
2019-05-20T08:43:54.459Z,52.40
2019-05-20T08:48:57.879Z,44.17
2019-05-20T08:54:01.334Z,48.13
2019-05-20T08:59:04.787Z,52.10
2019-05-20T09:04:08.229Z,50.13
2019-05-20T09:09:12.505Z,52.40
2019-05-20T09:14:16.001Z,55.37
2019-05-20T09:19:19.425Z,48.90
2019-05-20T09:24:22.859Z,45.97
2019-05-20T09:29:26.275Z,56.23
2019-05-20T09:34:30.357Z,47.23
2019-05-20T09:39:33.786Z,45.80
2019-05-20T09:44:37.240Z,46.17
2019-05-20T09:49:40.666Z,46.80
2019-05-20T09:54:45.679Z,53.60
2019-05-20T09:59:49.185Z,53.17
2019-05-20T10:04:52.609Z,58.20
2019-05-20T10:09:56.050Z,54.10
2019-05-20T10:14:59.521Z,54.50
2019-05-20T10:20:03.034Z,51.63
2019-05-20T10:25:07.838Z,50.57
2019-05-20T10:30:12.290Z,52.53
2019-05-20T10:35:17.339Z,48.70
2019-05-20T10:40:20.932Z,52.77
2019-05-20T10:45:24.342Z,55.10
2019-05-20T10:50:27.784Z,55.37
2019-05-20T10:55:31.251Z,52.77
2019-05-20T11:00:34.646Z,52.47
2019-05-20T11:05:38.094Z,70.20
2019-05-20T11:10:41.532Z,54.73
2019-05-20T11:15:44.957Z,53.50
2019-05-20T11:20:48.418Z,59.20
2019-05-20T11:25:51.841Z,54.37
2019-05-20T11:30:55.272Z,61.93
2019-05-20T11:35:58.685Z,58.27
2019-05-20T11:41:02.144Z,57.87
2019-05-20T11:46:05.583Z,51.87
2019-05-20T11:51:09.000Z,56.63
2019-05-20T11:56:12.442Z,50.97
2019-05-20T12:01:17.352Z,51.43
2019-05-20T12:06:20.858Z,47.63
2019-05-20T12:11:24.304Z,46.10
2019-05-20T12:16:27.721Z,53.40
2019-05-20T12:21:31.175Z,59.97
2019-05-20T12:26:34.608Z,57.00
2019-05-20T12:31:38.118Z,50.50
2019-05-20T12:36:41.574Z,53.30
2019-05-20T12:41:44.997Z,58.87
2019-05-20T12:46:48.464Z,53.60
2019-05-20T12:51:51.899Z,57.43
2019-05-20T12:56:55.319Z,49.60
2019-05-20T13:01:58.760Z,54.10
2019-05-20T13:07:02.187Z,53.87
2019-05-20T13:12:05.617Z,49.43
2019-05-20T13:17:09.035Z,51.13
2019-05-20T13:22:12.468Z,51.30
2019-05-20T13:27:15.901Z,49.43
2019-05-20T13:32:19.336Z,53.20
2019-05-20T13:37:22.771Z,52.73
2019-05-20T13:42:26.198Z,55.60
2019-05-20T13:47:29.664Z,50.93
2019-05-20T13:52:33.067Z,53.40
2019-05-20T13:57:36.486Z,49.43
2019-05-20T14:02:39.914Z,55.17
2019-05-20T14:07:43.370Z,54.67
2019-05-20T14:12:46.821Z,53.70
2019-05-20T14:17:50.263Z,58.73
2019-05-20T14:22:53.687Z,56.60
2019-05-20T14:27:57.138Z,50.47
2019-05-20T14:33:01.138Z,51.20
2019-05-20T14:38:04.572Z,49.03
2019-05-20T14:43:08.026Z,50.67
2019-05-20T14:48:11.478Z,52.67
2019-05-20T14:53:14.877Z,48.97
2019-05-20T14:58:18.305Z,51.17
2019-05-20T15:03:21.729Z,56.00
2019-05-20T15:08:25.233Z,49.10
2019-05-20T15:13:28.725Z,57.43
2019-05-20T15:18:32.137Z,48.00
2019-05-20T15:23:35.582Z,49.60
2019-05-20T15:28:39.061Z,51.50
2019-05-20T15:33:42.482Z,47.00
2019-05-20T15:38:45.909Z,46.27
2019-05-20T15:43:49.328Z,48.03
2019-05-20T15:48:52.776Z,45.20
2019-05-20T15:53:56.217Z,44.50
2019-05-20T15:58:59.678Z,56.07
2019-05-20T16:04:03.114Z,71.13
2019-05-20T16:09:06.834Z,48.90
2019-05-20T16:14:10.288Z,51.13
2019-05-20T16:19:13.691Z,50.20
2019-05-20T16:24:17.126Z,49.47
2019-05-20T16:29:20.611Z,45.83
2019-05-20T16:34:24.145Z,43.10
2019-05-20T16:39:30.792Z,43.97
2019-05-20T16:44:32.748Z,41.93
2019-05-20T16:49:36.191Z,40.30
2019-05-20T16:54:39.622Z,40.37
2019-05-20T16:59:43.062Z,43.40
2019-05-20T17:04:46.466Z,43.30
2019-05-20T17:09:49.905Z,40.10
2019-05-20T17:14:53.345Z,39.00
2019-05-20T17:19:56.772Z,37.50
2019-05-20T17:25:00.210Z,36.17
2019-05-20T17:30:05.196Z,35.50
2019-05-20T17:35:08.695Z,38.27
2019-05-20T17:40:12.562Z,38.03
2019-05-20T17:45:17.226Z,38.20
2019-05-20T17:50:22.110Z,34.30
2019-05-20T17:55:25.874Z,35.03
2019-05-20T18:00:29.767Z,38.87
2019-05-20T18:05:33.285Z,34.13
2019-05-20T18:10:36.778Z,39.23
2019-05-20T18:15:40.218Z,40.90
2019-05-20T18:20:43.712Z,44.60
2019-05-20T18:25:47.142Z,49.63
2019-05-20T18:30:51.449Z,44.77
2019-05-20T18:35:54.882Z,42.07
2019-05-20T18:40:58.306Z,44.83
2019-05-20T18:46:01.735Z,41.53
2019-05-20T18:51:05.166Z,42.37
2019-05-20T18:56:08.594Z,47.57
2019-05-20T19:01:12.038Z,44.77
2019-05-20T19:06:15.487Z,44.43
2019-05-20T19:11:18.983Z,40.43
2019-05-20T19:16:22.425Z,38.27
2019-05-20T19:21:25.891Z,41.67
2019-05-20T19:26:29.349Z,38.90
2019-05-20T19:31:32.805Z,40.10
2019-05-20T19:36:36.240Z,38.73
2019-05-20T19:41:39.663Z,38.00
2019-05-20T19:46:43.188Z,37.43
2019-05-20T19:51:46.639Z,39.30
2019-05-20T19:56:50.062Z,36.30
2019-05-20T20:01:54.525Z,39.17
2019-05-20T20:06:57.942Z,40.13
2019-05-20T20:12:01.372Z,38.97
2019-05-20T20:17:04.829Z,38.20
2019-05-20T20:22:08.383Z,37.57
2019-05-20T20:27:11.797Z,36.97
2019-05-20T20:32:15.223Z,41.07
2019-05-20T20:37:18.655Z,45.03
2019-05-20T20:42:22.114Z,45.73
2019-05-20T20:47:39.374Z,47.63
2019-05-20T20:52:32.542Z,44.13
2019-05-20T20:57:36.164Z,36.90
2019-05-20T21:02:52.121Z,42.37
2019-05-20T21:07:44.744Z,38.17
2019-05-20T21:12:48.161Z,35.40
2019-05-20T21:17:51.630Z,36.33
2019-05-20T21:22:55.009Z,33.67
2019-05-20T21:27:58.509Z,37.67
2019-05-20T21:33:09.166Z,33.90
2019-05-20T21:38:07.067Z,32.20
2019-05-20T21:43:10.513Z,35.07
2019-05-20T21:48:13.929Z,35.10
2019-05-20T21:53:17.360Z,34.87
2019-05-20T21:58:20.796Z,33.57
2019-05-20T22:03:25.368Z,36.10
2019-05-20T22:08:28.989Z,38.07
2019-05-20T22:13:32.437Z,37.63
2019-05-20T22:18:35.868Z,32.77
2019-05-20T22:23:49.811Z,34.30
2019-05-20T22:28:53.225Z,30.87
2019-05-20T22:33:56.660Z,35.47
2019-05-20T22:39:00.128Z,32.00
2019-05-20T22:44:03.569Z,36.87
2019-05-20T22:49:06.999Z,31.53
2019-05-20T22:54:10.621Z,31.07
2019-05-20T22:59:14.232Z,40.27
2019-05-20T23:04:17.656Z,37.33
2019-05-20T23:09:21.123Z,34.90
2019-05-20T23:14:25.257Z,38.33
2019-05-20T23:19:28.728Z,38.13
2019-05-20T23:24:32.117Z,38.47
2019-05-20T23:29:35.540Z,40.53
2019-05-20T23:34:39.006Z,39.80
2019-05-20T23:39:42.479Z,39.73
2019-05-20T23:44:45.912Z,39.80
2019-05-20T23:49:49.349Z,32.93
2019-05-20T23:55:37.870Z,34.93
